KPOV

Portage County Airport

Ravenna, Ohio, USA
METAR KPOV 190857Z AUTO 00000KT 7SM SCT041 OVC050 19/17 A2998 RMK AO2 T01850167 PWINO
Observed Flight Rules
Sep-19 @ 08:57 UTC (6 minutes ago) Visual Flight Rules
Visibility Clouds
7 miles
  • Scattered at 4,100' AGL
  • Overcast at 5,000' AGL
Temperatures Readings
Current 19°C / 66°F
Dewpoint 17°C / 63°F
Humidity 88%
Altimeter 29.98" Hg
Pressure 1015 hPa
Elevation 365
METAR KPOV 190857Z AUTO 00000KT 7SM SCT041 OVC050 19/17 A2998 RMK AO2 T01850167 PWINO
Observed Flight Rules
Sep-19 @ 08:57 UTC
(6 minutes ago)
VFR
Clouds
  • Scattered at 4,100' AGL
  • Overcast at 5,000' AGL
Temperature Dewpoint
19°C / 66°F 17°C / 63°F
Humidity Altimeter Pressure
88% 29.98" Hg 1015 hPa